Time;durP1;ratioP1;P1;durP2;ratioP2;P2;SDS_P1;SDS_P2;PMS_P1;PMS_P2;Temp;Humidity;BMP_temperature;BMP_pressure;BME280_temperature;BME280_humidity;BME280_pressure;Samples;Min_cycle;Max_cycle;Signal;HPM_P1;HPM_P2
2021/01/12 00:06:26;;;;;;;15.93;10.23;;;;;;;;;;5241099;23;20475;-96
2021/01/12 00:43:59;;;;;;;16.03;10.30;;;;;;;;;;5589495;23;20213;-96
2021/01/12 01:07:57;;;;;;;20.37;11.13;;;;;;;;;;5013392;28;20472;-96
2021/01/12 01:10:53;;;;;;;18.53;10.40;;;;;;;;;;5001416;28;20556;-96
2021/01/12 01:19:38;;;;;;;14.85;10.05;;;;;;;;;;4966240;28;20452;-96
2021/01/12 01:27:41;;;;;;;15.30;9.57;;;;;;;;;;5014700;28;20438;-96
2021/01/12 01:30:34;;;;;;;18.50;10.32;;;;;;;;;;5004035;28;20480;-96
2021/01/12 01:33:25;;;;;;;17.27;10.88;;;;;;;;;;5008738;28;20189;-96
2021/01/12 01:35:55;;;;;;;17.35;10.38;;;;;;;;;;4986270;28;20209;-96
2021/01/12 01:38:21;;;;;;;16.05;11.20;;;;;;;;;;5004423;28;20201;-96
2021/01/12 01:40:51;;;;;;;15.67;9.97;;;;;;;;;;5006193;28;20206;-96
2021/01/12 01:43:22;;;;;;;17.33;10.10;;;;;;;;;;4996812;28;20460;-96
2021/01/12 01:45:49;;;;;;;16.85;9.77;;;;;;;;;;5003468;28;20447;-96
2021/01/12 01:48:15;;;;;;;14.20;9.67;;;;;;;;;;4996074;28;20197;-96
2021/01/12 01:50:41;;;;;;;17.67;10.88;;;;;;;;;;4996178;28;20501;-96
2021/01/12 01:53:10;;;;;;;15.98;11.15;;;;;;;;;;4989103;28;20206;-96
2021/01/12 01:55:37;;;;;;;19.08;10.85;;;;;;;;;;5003555;28;20222;-96
2021/01/12 01:58:05;;;;;;;15.60;11.60;;;;;;;;;;5007304;28;20205;-96
2021/01/12 02:00:32;;;;;;;18.10;11.30;;;;;;;;;;5013806;28;20435;-96
2021/01/12 02:03:00;;;;;;;21.95;13.10;;;;;;;;;;4999548;28;20428;-96
2021/01/12 02:05:28;;;;;;;19.73;12.30;;;;;;;;;;5003527;28;20239;-95
2021/01/12 02:07:58;;;;;;;17.37;11.70;;;;;;;;;;5006305;28;20455;-96
2021/01/12 02:10:25;;;;;;;18.00;11.40;;;;;;;;;;5014516;28;20516;-96
2021/01/12 02:12:55;;;;;;;15.32;11.05;;;;;;;;;;5000700;28;20441;-96
2021/01/12 02:15:23;;;;;;;19.08;11.18;;;;;;;;;;5007686;28;20193;-96
2021/01/12 02:17:51;;;;;;;18.02;10.80;;;;;;;;;;5006473;28;20219;-96
2021/01/12 02:25:48;;;;;;;19.13;11.90;;;;;;;;;;4995650;28;20461;-96
2021/01/12 02:28:17;;;;;;;21.37;13.43;;;;;;;;;;5005397;28;20209;-96
2021/01/12 02:30:44;;;;;;;18.95;12.32;;;;;;;;;;5006238;28;20469;-96
2021/01/12 02:33:10;;;;;;;19.50;11.95;;;;;;;;;;5007477;28;20304;-96
2021/01/12 02:35:38;;;;;;;22.88;13.90;;;;;;;;;;5002156;28;20213;-94
2021/01/12 02:38:04;;;;;;;22.67;14.32;;;;;;;;;;4987560;28;20206;-96
2021/01/12 02:40:30;;;;;;;18.20;12.50;;;;;;;;;;4992166;28;20214;-96
2021/01/12 02:42:58;;;;;;;18.58;12.50;;;;;;;;;;4993394;28;20198;-96
2021/01/12 02:45:24;;;;;;;19.65;13.77;;;;;;;;;;4990819;28;20217;-96
2021/01/12 02:47:50;;;;;;;20.40;12.23;;;;;;;;;;4992629;28;20236;-96
2021/01/12 02:50:16;;;;;;;21.05;12.30;;;;;;;;;;4988224;28;20226;-96
2021/01/12 02:52:42;;;;;;;23.00;12.38;;;;;;;;;;5005348;28;20215;-96
2021/01/12 02:55:10;;;;;;;24.23;12.05;;;;;;;;;;4993654;28;20235;-96
2021/01/12 02:57:36;;;;;;;18.33;12.25;;;;;;;;;;4993394;28;20213;-96
2021/01/12 03:00:05;;;;;;;18.37;11.63;;;;;;;;;;5000751;28;20202;-96
2021/01/12 03:02:31;;;;;;;19.13;11.63;;;;;;;;;;5004656;28;20456;-96
2021/01/12 03:04:57;;;;;;;18.33;11.50;;;;;;;;;;4995374;28;20233;-96
2021/01/12 03:07:23;;;;;;;17.90;11.80;;;;;;;;;;5001602;28;20475;-96
2021/01/12 03:09:50;;;;;;;17.00;11.02;;;;;;;;;;5015885;28;20216;-96
2021/01/12 03:12:16;;;;;;;17.35;11.93;;;;;;;;;;4990999;28;20220;-96
2021/01/12 03:14:43;;;;;;;15.30;11.00;;;;;;;;;;5003326;28;20245;-96
2021/01/12 03:17:10;;;;;;;16.77;11.77;;;;;;;;;;4996885;28;20541;-96
2021/01/12 03:19:37;;;;;;;17.42;11.80;;;;;;;;;;4986997;28;20461;-94
2021/01/12 03:22:03;;;;;;;19.10;11.85;;;;;;;;;;4987509;28;20209;-95
2021/01/12 03:24:29;;;;;;;19.53;12.00;;;;;;;;;;5000209;28;20237;-96
2021/01/12 03:26:55;;;;;;;17.30;11.45;;;;;;;;;;4999349;28;20533;-96
2021/01/12 03:29:21;;;;;;;20.13;12.32;;;;;;;;;;4996348;28;20225;-95
2021/01/12 03:31:47;;;;;;;19.30;12.93;;;;;;;;;;5003777;28;20209;-95
2021/01/12 03:34:14;;;;;;;18.03;13.00;;;;;;;;;;4983584;28;20492;-94
2021/01/12 03:36:40;;;;;;;19.27;12.10;;;;;;;;;;5003271;28;20506;-95
2021/01/12 03:39:07;;;;;;;24.30;14.47;;;;;;;;;;4986721;28;20477;-95
2021/01/12 03:41:33;;;;;;;21.33;12.82;;;;;;;;;;4996591;28;20449;-95
2021/01/12 03:43:59;;;;;;;20.13;12.73;;;;;;;;;;5002048;28;20223;-95
2021/01/12 03:46:25;;;;;;;19.75;11.95;;;;;;;;;;5000588;28;20206;-96
2021/01/12 03:48:51;;;;;;;20.38;12.65;;;;;;;;;;4995768;28;20209;-94
2021/01/12 03:51:19;;;;;;;20.08;12.98;;;;;;;;;;4995202;28;20213;-95
2021/01/12 03:53:45;;;;;;;18.73;13.35;;;;;;;;;;5001613;28;20219;-95
2021/01/12 03:56:13;;;;;;;20.87;12.83;;;;;;;;;;4989975;28;20217;-94
2021/01/12 03:58:39;;;;;;;25.83;12.65;;;;;;;;;;5002688;28;20476;-96
2021/01/12 04:01:05;;;;;;;21.73;13.37;;;;;;;;;;4995975;28;20210;-95
2021/01/12 04:03:39;;;;;;;24.40;13.33;;;;;;;;;;4990727;28;20507;-96
2021/01/12 04:06:10;;;;;;;24.77;13.93;;;;;;;;;;4990610;28;20484;-96
2021/01/12 04:08:37;;;;;;;20.88;14.43;;;;;;;;;;4998195;28;20205;-96
2021/01/12 04:11:03;;;;;;;26.40;15.57;;;;;;;;;;5002148;28;20225;-96
2021/01/12 04:13:29;;;;;;;22.07;13.80;;;;;;;;;;4985823;28;20209;-96
2021/01/12 04:15:55;;;;;;;18.27;12.05;;;;;;;;;;4990728;28;20454;-96
2021/01/12 04:18:21;;;;;;;20.85;13.20;;;;;;;;;;4987579;28;20620;-96
2021/01/12 04:20:47;;;;;;;19.40;13.10;;;;;;;;;;4993565;28;20273;-96
2021/01/12 04:23:13;;;;;;;18.33;11.32;;;;;;;;;;5000265;28;20474;-96
2021/01/12 04:25:44;;;;;;;17.83;11.67;;;;;;;;;;4997370;28;20211;-96
2021/01/12 04:28:10;;;;;;;17.83;12.52;;;;;;;;;;5000228;28;20460;-95
2021/01/12 04:30:37;;;;;;;17.88;11.98;;;;;;;;;;4994893;28;20222;-96
2021/01/12 04:33:03;;;;;;;20.75;12.07;;;;;;;;;;5003730;28;20627;-96
2021/01/12 04:35:29;;;;;;;21.55;12.38;;;;;;;;;;4996825;28;20264;-94
2021/01/12 04:37:55;;;;;;;22.38;12.95;;;;;;;;;;5001580;28;20236;-95
2021/01/12 04:40:21;;;;;;;21.23;13.45;;;;;;;;;;4995602;28;20213;-94
2021/01/12 04:42:48;;;;;;;16.65;11.57;;;;;;;;;;4991872;28;20200;-94
2021/01/12 04:45:14;;;;;;;15.45;11.07;;;;;;;;;;4994732;28;21052;-95
2021/01/12 04:47:40;;;;;;;17.47;11.50;;;;;;;;;;4988331;28;20202;-96
2021/01/12 04:50:07;;;;;;;19.37;11.70;;;;;;;;;;4996530;28;20492;-96
2021/01/12 04:52:42;;;;;;;13.07;9.80;;;;;;;;;;4996761;28;20456;-94
2021/01/12 04:55:09;;;;;;;15.20;10.27;;;;;;;;;;4993211;28;20799;-96
2021/01/12 04:57:35;;;;;;;13.63;10.60;;;;;;;;;;4988152;28;20240;-96
2021/01/12 05:00:07;;;;;;;15.05;10.07;;;;;;;;;;5001610;28;20213;-95
2021/01/12 05:02:33;;;;;;;16.67;11.20;;;;;;;;;;4998285;28;20206;-94
2021/01/12 05:04:59;;;;;;;16.77;12.40;;;;;;;;;;4991085;28;20206;-96
2021/01/12 05:07:25;;;;;;;19.30;12.00;;;;;;;;;;4980809;28;20237;-95
2021/01/12 05:10:01;;;;;;;22.20;14.45;;;;;;;;;;4999474;28;20515;-96
2021/01/12 05:12:35;;;;;;;19.85;13.80;;;;;;;;;;5082634;23;20266;-96
2021/01/12 05:15:02;;;;;;;17.25;12.02;;;;;;;;;;4999051;28;20204;-95
2021/01/12 05:17:30;;;;;;;22.50;14.05;;;;;;;;;;5002871;28;20212;-96
2021/01/12 05:19:57;;;;;;;20.15;13.00;;;;;;;;;;5008401;28;20240;-96
2021/01/12 05:22:25;;;;;;;21.35;11.57;;;;;;;;;;4985819;28;20201;-96
2021/01/12 05:25:18;;;;;;;18.60;11.60;;;;;;;;;;4997965;28;20220;-93
2021/01/12 05:27:37;;;;;;;18.52;10.90;;;;;;;;;;4996955;28;20201;-95
2021/01/12 05:30:06;;;;;;;20.20;12.10;;;;;;;;;;4999121;28;20257;-95
2021/01/12 05:32:32;;;;;;;17.13;11.48;;;;;;;;;;4999374;28;20451;-96
2021/01/12 05:35:02;;;;;;;19.05;12.25;;;;;;;;;;4998334;28;20205;-94
2021/01/12 05:37:29;;;;;;;20.38;12.00;;;;;;;;;;4996497;28;20522;-94
2021/01/12 05:40:02;;;;;;;18.25;12.82;;;;;;;;;;5004692;28;20219;-96
2021/01/12 05:42:36;;;;;;;19.35;12.80;;;;;;;;;;5004073;28;20199;-96
2021/01/12 05:45:03;;;;;;;26.27;14.70;;;;;;;;;;4983267;28;20195;-96
2021/01/12 05:47:30;;;;;;;23.30;15.15;;;;;;;;;;4999580;28;20277;-95
2021/01/12 05:49:57;;;;;;;26.13;15.95;;;;;;;;;;4992123;28;20229;-96
2021/01/12 05:52:25;;;;;;;27.02;14.43;;;;;;;;;;4998053;28;20221;-96
2021/01/12 05:54:54;;;;;;;24.50;12.45;;;;;;;;;;4984976;28;20213;-96
2021/01/12 05:57:23;;;;;;;26.95;15.60;;;;;;;;;;4995075;28;20640;-95
2021/01/12 06:00:03;;;;;;;24.38;15.27;;;;;;;;;;4996773;28;20770;-96
2021/01/12 06:02:30;;;;;;;28.55;16.17;;;;;;;;;;5000715;28;20205;-93
2021/01/12 06:04:58;;;;;;;24.17;15.27;;;;;;;;;;4992262;28;20218;-96
2021/01/12 06:07:25;;;;;;;22.73;15.20;;;;;;;;;;5002000;28;20216;-96
2021/01/12 06:09:58;;;;;;;28.70;15.93;;;;;;;;;;5009598;28;20244;-96
2021/01/12 06:12:25;;;;;;;24.23;14.13;;;;;;;;;;4991580;28;20727;-93
2021/01/12 06:14:55;;;;;;;24.88;14.93;;;;;;;;;;4993040;28;20205;-96
2021/01/12 06:17:29;;;;;;;28.05;16.35;;;;;;;;;;5006656;28;20219;-96
2021/01/12 06:20:02;;;;;;;24.70;15.38;;;;;;;;;;5004357;28;20194;-96
2021/01/12 06:22:47;;;;;;;22.02;15.30;;;;;;;;;;5002879;28;20200;-96
2021/01/12 06:25:15;;;;;;;18.90;13.23;;;;;;;;;;5005614;28;20269;-96
2021/01/12 06:27:41;;;;;;;21.20;14.90;;;;;;;;;;5015584;28;20205;-96
2021/01/12 06:30:10;;;;;;;21.08;14.63;;;;;;;;;;5005620;28;20255;-96
2021/01/12 06:32:37;;;;;;;25.52;16.08;;;;;;;;;;5006919;28;20201;-96
2021/01/12 06:35:04;;;;;;;27.50;17.35;;;;;;;;;;4996291;28;20208;-95
2021/01/12 06:37:34;;;;;;;24.90;17.45;;;;;;;;;;5008518;28;20276;-96
2021/01/12 06:40:03;;;;;;;28.55;19.35;;;;;;;;;;5004547;28;20511;-96
2021/01/12 06:42:31;;;;;;;26.07;17.40;;;;;;;;;;5002006;28;20219;-96
2021/01/12 06:44:58;;;;;;;29.97;18.50;;;;;;;;;;5009067;28;20460;-96
2021/01/12 06:47:25;;;;;;;28.90;18.30;;;;;;;;;;5005740;28;20487;-96
2021/01/12 06:50:01;;;;;;;25.63;16.80;;;;;;;;;;5002480;28;20488;-94
2021/01/12 06:52:27;;;;;;;26.92;15.40;;;;;;;;;;5001404;28;20212;-94
2021/01/12 06:54:53;;;;;;;24.48;15.32;;;;;;;;;;4994455;28;20202;-95
2021/01/12 06:57:23;;;;;;;24.65;15.95;;;;;;;;;;4999939;28;20213;-96
2021/01/12 06:59:53;;;;;;;22.33;14.88;;;;;;;;;;4995674;28;20272;-96
2021/01/12 07:02:19;;;;;;;27.77;16.57;;;;;;;;;;4992226;28;20228;-95
2021/01/12 07:04:55;;;;;;;27.17;17.17;;;;;;;;;;5000651;28;20480;-96
2021/01/12 07:07:22;;;;;;;23.92;15.43;;;;;;;;;;5004219;28;20205;-95
2021/01/12 07:09:48;;;;;;;27.60;16.42;;;;;;;;;;4992076;28;20298;-96
2021/01/12 07:12:19;;;;;;;29.75;16.70;;;;;;;;;;4991389;28;20212;-96
2021/01/12 07:14:45;;;;;;;29.17;18.00;;;;;;;;;;4998434;28;20211;-96
2021/01/12 07:17:12;;;;;;;35.67;21.20;;;;;;;;;;4992081;28;20212;-96
2021/01/12 07:19:39;;;;;;;29.63;20.10;;;;;;;;;;4997867;28;20452;-95
2021/01/12 07:22:10;;;;;;;29.80;19.27;;;;;;;;;;4998453;28;20201;-95
2021/01/12 07:24:38;;;;;;;29.27;19.42;;;;;;;;;;5003228;28;20206;-96
2021/01/12 07:27:05;;;;;;;34.90;21.03;;;;;;;;;;5001265;28;20205;-95
2021/01/12 07:29:31;;;;;;;40.85;24.33;;;;;;;;;;4994564;28;20507;-92
2021/01/12 07:32:01;;;;;;;27.65;14.07;;;;;;;;;;4993947;28;20209;-93
2021/01/12 07:34:34;;;;;;;33.05;20.40;;;;;;;;;;4995231;28;20260;-95
2021/01/12 07:37:02;;;;;;;35.10;22.10;;;;;;;;;;5000848;28;20613;-93
2021/01/12 07:39:30;;;;;;;32.30;17.50;;;;;;;;;;4994141;28;20463;-93
2021/01/12 07:41:57;;;;;;;23.23;15.13;;;;;;;;;;5001965;28;20447;-94
2021/01/12 07:44:25;;;;;;;34.20;18.67;;;;;;;;;;4992503;28;20210;-93
2021/01/12 07:46:53;;;;;;;28.40;16.50;;;;;;;;;;5003260;28;20473;-94
2021/01/12 07:49:19;;;;;;;24.10;15.43;;;;;;;;;;5002666;28;20447;-92
2021/01/12 07:51:46;;;;;;;23.07;15.97;;;;;;;;;;5010641;28;20209;-94
2021/01/12 07:54:21;;;;;;;26.13;14.93;;;;;;;;;;4994475;28;20456;-94
2021/01/12 07:56:48;;;;;;;21.87;15.00;;;;;;;;;;4991993;28;20448;-93
2021/01/12 07:59:14;;;;;;;27.75;17.25;;;;;;;;;;4994128;28;20470;-94
2021/01/12 08:01:40;;;;;;;31.10;18.87;;;;;;;;;;4988426;28;20209;-92
2021/01/12 08:04:06;;;;;;;33.58;21.42;;;;;;;;;;5001096;28;21233;-93
2021/01/12 08:06:40;;;;;;;35.00;22.70;;;;;;;;;;4998728;28;20236;-93
2021/01/12 08:09:07;;;;;;;30.30;21.10;;;;;;;;;;4991839;28;20459;-93
2021/01/12 08:11:33;;;;;;;35.38;22.75;;;;;;;;;;4999366;28;20205;-93
2021/01/12 08:14:05;;;;;;;31.98;21.73;;;;;;;;;;5001884;28;20255;-93
2021/01/12 08:16:32;;;;;;;28.95;20.35;;;;;;;;;;4997320;28;20217;-93
2021/01/12 08:18:58;;;;;;;32.20;22.33;;;;;;;;;;4993958;28;20209;-92
2021/01/12 08:21:24;;;;;;;38.03;23.00;;;;;;;;;;4993275;28;20455;-92
2021/01/12 08:23:59;;;;;;;31.17;22.40;;;;;;;;;;4990755;28;20464;-94
2021/01/12 08:26:26;;;;;;;37.58;24.63;;;;;;;;;;4993686;28;20541;-93
2021/01/12 08:28:52;;;;;;;24.80;16.40;;;;;;;;;;4995318;28;20209;-93
2021/01/12 08:31:18;;;;;;;23.93;14.50;;;;;;;;;;4991231;28;20524;-94
2021/01/12 08:33:46;;;;;;;25.17;16.70;;;;;;;;;;5006139;28;20479;-94
2021/01/12 08:36:15;;;;;;;26.10;17.75;;;;;;;;;;5001543;28;20449;-93
2021/01/12 08:38:42;;;;;;;35.43;20.07;;;;;;;;;;4993572;28;20209;-93
2021/01/12 08:41:08;;;;;;;33.17;21.73;;;;;;;;;;4987915;28;20448;-93
2021/01/12 08:43:36;;;;;;;26.97;16.60;;;;;;;;;;4997883;28;20477;-94
2021/01/12 08:46:03;;;;;;;30.00;18.27;;;;;;;;;;4992601;28;20472;-93
2021/01/12 08:48:29;;;;;;;33.45;20.73;;;;;;;;;;4992574;28;20473;-92
2021/01/12 08:50:55;;;;;;;21.97;15.93;;;;;;;;;;4988528;28;20233;-93
2021/01/12 08:53:26;;;;;;;20.33;15.60;;;;;;;;;;5000131;28;20467;-93
2021/01/12 08:55:52;;;;;;;20.07;13.97;;;;;;;;;;4984300;28;20461;-93
2021/01/12 08:58:18;;;;;;;27.90;19.37;;;;;;;;;;4990092;28;20469;-93
2021/01/12 09:00:52;;;;;;;19.27;13.60;;;;;;;;;;4995635;28;20485;-92
2021/01/12 09:03:20;;;;;;;56.70;30.70;;;;;;;;;;4996248;28;20481;-93
2021/01/12 09:05:46;;;;;;;58.57;34.17;;;;;;;;;;4992945;28;20452;-91
2021/01/12 09:08:16;;;;;;;24.40;17.27;;;;;;;;;;4993499;28;20468;-92
2021/01/12 09:10:42;;;;;;;21.30;15.27;;;;;;;;;;4991482;28;20492;-92
2021/01/12 09:13:08;;;;;;;19.63;13.47;;;;;;;;;;5005856;28;20225;-93
2021/01/12 09:15:35;;;;;;;23.77;14.87;;;;;;;;;;4998670;28;20440;-93
2021/01/12 09:18:06;;;;;;;20.30;14.00;;;;;;;;;;4993289;28;20469;-93
2021/01/12 09:20:32;;;;;;;18.87;10.93;;;;;;;;;;4989975;28;20445;-93
2021/01/12 09:23:05;;;;;;;18.83;13.18;;;;;;;;;;4993302;28;20473;-93
2021/01/12 09:25:32;;;;;;;18.77;13.80;;;;;;;;;;4997087;28;20638;-92
2021/01/12 09:28:05;;;;;;;20.10;13.53;;;;;;;;;;4994400;28;20481;-93
2021/01/12 09:30:32;;;;;;;21.67;12.50;;;;;;;;;;5000004;28;20488;-92
2021/01/12 09:32:58;;;;;;;20.03;13.20;;;;;;;;;;4995004;28;20470;-94
2021/01/12 09:35:25;;;;;;;16.80;12.40;;;;;;;;;;4987642;28;20481;-94
2021/01/12 09:37:55;;;;;;;17.87;12.50;;;;;;;;;;4996133;28;20453;-94
2021/01/12 09:40:21;;;;;;;19.42;12.35;;;;;;;;;;4987316;28;20449;-93
2021/01/12 09:42:47;;;;;;;15.60;12.67;;;;;;;;;;4989111;28;20210;-93
2021/01/12 09:45:13;;;;;;;25.57;13.50;;;;;;;;;;4986485;28;20512;-94
2021/01/12 09:47:39;;;;;;;15.00;10.00;;;;;;;;;;4992351;28;20472;-93
2021/01/12 09:50:05;;;;;;;13.93;8.33;;;;;;;;;;4987203;28;20492;-93
2021/01/12 09:52:32;;;;;;;10.90;7.30;;;;;;;;;;4989908;28;20487;-93
2021/01/12 09:54:58;;;;;;;9.70;8.13;;;;;;;;;;4994335;28;20454;-93
2021/01/12 09:57:24;;;;;;;13.20;7.43;;;;;;;;;;4996226;28;20465;-92
2021/01/12 09:59:50;;;;;;;14.80;8.37;;;;;;;;;;4995991;28;20460;-90
2021/01/12 10:02:16;;;;;;;12.70;9.13;;;;;;;;;;4998604;28;20503;-93
2021/01/12 10:04:44;;;;;;;11.50;9.47;;;;;;;;;;4997562;28;20449;-92
2021/01/12 10:07:10;;;;;;;12.30;9.63;;;;;;;;;;4993296;28;21366;-93
2021/01/12 10:09:37;;;;;;;10.75;9.55;;;;;;;;;;4989446;28;20458;-93
2021/01/12 10:12:04;;;;;;;17.23;11.47;;;;;;;;;;4992584;28;20208;-93
2021/01/12 10:14:30;;;;;;;31.83;17.17;;;;;;;;;;4992481;28;20453;-93
2021/01/12 10:16:56;;;;;;;42.53;20.80;;;;;;;;;;4997496;28;20451;-92
2021/01/12 10:19:22;;;;;;;40.60;22.07;;;;;;;;;;4999127;28;20491;-93
2021/01/12 10:21:48;;;;;;;36.97;19.30;;;;;;;;;;4989189;28;20465;-94
2021/01/12 10:24:14;;;;;;;31.23;17.20;;;;;;;;;;4995758;28;20453;-93
2021/01/12 10:26:43;;;;;;;28.73;18.20;;;;;;;;;;4995381;28;20826;-92
2021/01/12 10:29:09;;;;;;;23.60;16.33;;;;;;;;;;5007049;28;20453;-94
2021/01/12 10:31:37;;;;;;;29.73;17.35;;;;;;;;;;4998295;28;20502;-92
2021/01/12 10:34:03;;;;;;;22.70;14.30;;;;;;;;;;4995015;28;20209;-93
2021/01/12 10:36:29;;;;;;;20.40;12.60;;;;;;;;;;4989631;28;20465;-93
2021/01/12 10:38:55;;;;;;;18.37;11.93;;;;;;;;;;4995399;28;20825;-93
2021/01/12 10:41:21;;;;;;;19.87;13.10;;;;;;;;;;5000786;28;21373;-94
2021/01/12 10:43:49;;;;;;;19.60;13.60;;;;;;;;;;4993686;28;21164;-93
2021/01/12 10:46:16;;;;;;;20.63;13.27;;;;;;;;;;4992175;28;20463;-93
2021/01/12 10:48:42;;;;;;;21.53;14.00;;;;;;;;;;4996205;28;20472;-94
2021/01/12 10:51:09;;;;;;;13.47;9.17;;;;;;;;;;4989847;28;20500;-93
2021/01/12 10:53:35;;;;;;;11.67;9.40;;;;;;;;;;4991743;28;20455;-92
2021/01/12 10:56:04;;;;;;;10.93;8.40;;;;;;;;;;4993522;28;20454;-92
2021/01/12 10:58:30;;;;;;;9.87;7.70;;;;;;;;;;4998920;28;20480;-94
2021/01/12 11:01:00;;;;;;;12.60;10.20;;;;;;;;;;4995035;28;20462;-95
2021/01/12 11:03:29;;;;;;;13.87;8.73;;;;;;;;;;4993871;28;20448;-93
2021/01/12 11:05:55;;;;;;;11.70;8.90;;;;;;;;;;4995071;28;20452;-93
2021/01/12 11:08:21;;;;;;;11.37;9.77;;;;;;;;;;4996707;28;20475;-92
2021/01/12 11:10:47;;;;;;;16.40;11.37;;;;;;;;;;4999225;28;21396;-92
2021/01/12 11:13:14;;;;;;;10.00;8.60;;;;;;;;;;5003421;28;20480;-92
2021/01/12 11:15:42;;;;;;;10.68;8.95;;;;;;;;;;5005916;28;20209;-93
2021/01/12 11:18:09;;;;;;;9.80;8.43;;;;;;;;;;4994836;28;20205;-92
2021/01/12 11:20:35;;;;;;;15.50;10.67;;;;;;;;;;4986870;28;20850;-93
2021/01/12 11:23:01;;;;;;;12.30;9.33;;;;;;;;;;4996255;28;20485;-92
2021/01/12 11:25:28;;;;;;;19.40;13.67;;;;;;;;;;4999308;28;20462;-93
2021/01/12 11:27:54;;;;;;;17.60;12.70;;;;;;;;;;5001341;28;20472;-93
2021/01/12 11:30:20;;;;;;;12.10;9.57;;;;;;;;;;5002415;28;20491;-94
2021/01/12 11:32:46;;;;;;;13.17;10.17;;;;;;;;;;4996982;28;20454;-92
2021/01/12 11:35:15;;;;;;;16.10;12.20;;;;;;;;;;4991364;28;20492;-92
2021/01/12 11:37:43;;;;;;;13.10;10.43;;;;;;;;;;4997458;28;20500;-92
2021/01/12 11:40:10;;;;;;;17.10;13.33;;;;;;;;;;4990627;28;20524;-93
2021/01/12 11:42:36;;;;;;;10.90;9.00;;;;;;;;;;4992777;28;20452;-92
2021/01/12 11:45:03;;;;;;;11.32;9.63;;;;;;;;;;5003191;28;20464;-94
2021/01/12 11:47:30;;;;;;;13.80;11.37;;;;;;;;;;5001523;28;20212;-94
2021/01/12 11:49:57;;;;;;;16.50;12.33;;;;;;;;;;4992814;28;20519;-92
2021/01/12 11:52:24;;;;;;;12.93;11.27;;;;;;;;;;5000177;28;20445;-93
2021/01/12 11:54:50;;;;;;;14.80;11.90;;;;;;;;;;4996467;28;20453;-94
2021/01/12 11:57:16;;;;;;;14.80;11.40;;;;;;;;;;4998459;28;20477;-93
2021/01/12 11:59:42;;;;;;;13.10;11.20;;;;;;;;;;4994266;28;20464;-92
2021/01/12 12:02:08;;;;;;;12.63;10.17;;;;;;;;;;4996794;28;20453;-93
2021/01/12 12:04:34;;;;;;;12.03;9.47;;;;;;;;;;4990693;28;20453;-92
2021/01/12 12:07:02;;;;;;;11.80;9.03;;;;;;;;;;4996593;28;20468;-93
2021/01/12 12:09:29;;;;;;;12.60;10.20;;;;;;;;;;4991941;28;20468;-92
2021/01/12 12:11:55;;;;;;;9.00;8.00;;;;;;;;;;4985958;28;20472;-92
2021/01/12 12:14:22;;;;;;;10.47;9.00;;;;;;;;;;4993796;28;20507;-92
2021/01/12 12:16:48;;;;;;;7.60;6.80;;;;;;;;;;4973120;28;20458;-93
2021/01/12 12:19:15;;;;;;;9.77;8.70;;;;;;;;;;4988783;28;20537;-91
2021/01/12 12:21:45;;;;;;;7.93;7.13;;;;;;;;;;4996067;28;20456;-93
2021/01/12 12:24:12;;;;;;;10.40;8.10;;;;;;;;;;4992742;28;20456;-93
2021/01/12 12:26:39;;;;;;;9.27;8.27;;;;;;;;;;5007650;28;20216;-92
2021/01/12 12:29:05;;;;;;;9.33;7.70;;;;;;;;;;4999938;28;20449;-92
2021/01/12 12:31:31;;;;;;;8.10;6.93;;;;;;;;;;5002765;28;20542;-93
2021/01/12 12:33:58;;;;;;;8.83;7.17;;;;;;;;;;4994879;28;20461;-93
2021/01/12 12:36:24;;;;;;;9.60;8.30;;;;;;;;;;4991871;28;20875;-92
2021/01/12 12:38:50;;;;;;;11.93;7.55;;;;;;;;;;5003417;28;20560;-94
2021/01/12 12:41:17;;;;;;;7.80;7.00;;;;;;;;;;4997464;28;20248;-92
2021/01/12 12:43:45;;;;;;;8.30;7.40;;;;;;;;;;4996765;28;20440;-93
2021/01/12 12:46:12;;;;;;;8.93;7.50;;;;;;;;;;4993926;28;20469;-92
2021/01/12 12:48:38;;;;;;;14.33;9.97;;;;;;;;;;4993117;28;20472;-94
2021/01/12 12:51:05;;;;;;;12.07;9.67;;;;;;;;;;5000419;28;20495;-94
2021/01/12 12:53:36;;;;;;;11.73;8.33;;;;;;;;;;4996648;28;20628;-94
2021/01/12 12:56:03;;;;;;;9.13;7.80;;;;;;;;;;5003068;28;20591;-95
2021/01/12 12:58:29;;;;;;;8.23;7.33;;;;;;;;;;4996675;28;20453;-93
2021/01/12 13:00:57;;;;;;;10.93;8.83;;;;;;;;;;4992926;28;20436;-94
2021/01/12 13:03:24;;;;;;;14.30;9.80;;;;;;;;;;5001651;28;20473;-94
2021/01/12 13:05:50;;;;;;;16.00;11.00;;;;;;;;;;5003340;28;20468;-93
2021/01/12 13:08:17;;;;;;;10.73;8.50;;;;;;;;;;4992436;28;20465;-94
2021/01/12 13:10:51;;;;;;;9.40;7.77;;;;;;;;;;4995130;28;20497;-96
2021/01/12 13:13:17;;;;;;;18.27;10.00;;;;;;;;;;5001551;28;21189;-94
2021/01/12 13:15:48;;;;;;;12.77;8.43;;;;;;;;;;5000425;28;20458;-96
2021/01/12 13:18:15;;;;;;;6.00;5.40;;;;;;;;;;4996879;28;20223;-94
2021/01/12 13:20:41;;;;;;;7.22;6.35;;;;;;;;;;5005396;28;20198;-96
2021/01/12 13:23:07;;;;;;;6.97;6.28;;;;;;;;;;4985590;28;20213;-94
2021/01/12 13:25:34;;;;;;;8.85;7.32;;;;;;;;;;5001436;28;20241;-95
2021/01/12 13:28:00;;;;;;;8.23;6.45;;;;;;;;;;4982413;28;20213;-95
2021/01/12 13:30:26;;;;;;;8.63;6.07;;;;;;;;;;4997172;28;20212;-94
2021/01/12 13:32:54;;;;;;;10.80;7.45;;;;;;;;;;5007350;28;20210;-96
2021/01/12 13:35:29;;;;;;;8.10;6.60;;;;;;;;;;5009115;28;20209;-96
2021/01/12 13:37:55;;;;;;;7.88;6.20;;;;;;;;;;5005470;28;20220;-95
2021/01/12 13:40:35;;;;;;;10.20;6.97;;;;;;;;;;4999482;28;20223;-96
2021/01/12 13:43:01;;;;;;;8.38;7.10;;;;;;;;;;4993128;28;20258;-93
2021/01/12 13:45:27;;;;;;;9.65;7.10;;;;;;;;;;4991426;28;20210;-93
2021/01/12 13:47:54;;;;;;;7.80;6.30;;;;;;;;;;4992770;28;20202;-95
2021/01/12 13:50:21;;;;;;;11.30;7.80;;;;;;;;;;4985436;28;20229;-95
2021/01/12 13:52:48;;;;;;;9.55;7.82;;;;;;;;;;4991242;28;20220;-94
2021/01/12 13:55:15;;;;;;;11.55;8.90;;;;;;;;;;4995620;28;20221;-93
2021/01/12 13:57:49;;;;;;;11.00;8.37;;;;;;;;;;4992019;28;20197;-92
2021/01/12 14:00:21;;;;;;;11.70;8.40;;;;;;;;;;5004601;28;20432;-96
2021/01/12 14:02:47;;;;;;;13.80;8.77;;;;;;;;;;4993790;28;20472;-92
2021/01/12 14:05:22;;;;;;;12.50;8.32;;;;;;;;;;5010961;28;20227;-96
2021/01/12 14:07:49;;;;;;;16.38;11.27;;;;;;;;;;5001543;28;20213;-95
2021/01/12 14:10:15;;;;;;;13.87;10.70;;;;;;;;;;4999356;28;20233;-93
2021/01/12 14:12:42;;;;;;;12.60;10.02;;;;;;;;;;4999146;28;20484;-94
2021/01/12 14:15:08;;;;;;;17.33;12.35;;;;;;;;;;4993264;28;20215;-94
2021/01/12 14:17:37;;;;;;;16.40;12.00;;;;;;;;;;4997941;28;20202;-94
2021/01/12 14:20:04;;;;;;;16.33;12.00;;;;;;;;;;4997772;28;20460;-94
2021/01/12 14:22:32;;;;;;;13.00;10.50;;;;;;;;;;4999399;28;20465;-92
2021/01/12 14:24:58;;;;;;;9.20;8.30;;;;;;;;;;4994672;28;20738;-94
2021/01/12 14:27:27;;;;;;;12.25;9.32;;;;;;;;;;4994122;28;20468;-92
2021/01/12 14:29:53;;;;;;;10.85;8.13;;;;;;;;;;4987193;28;20220;-91
2021/01/12 14:32:20;;;;;;;9.40;8.10;;;;;;;;;;5001016;28;20209;-92
2021/01/12 14:34:46;;;;;;;10.53;8.20;;;;;;;;;;4996984;28;20210;-93
2021/01/12 14:37:13;;;;;;;12.45;10.40;;;;;;;;;;4993821;28;20457;-94
2021/01/12 14:39:53;;;;;;;13.07;10.33;;;;;;;;;;4988220;28;20205;-93
2021/01/12 14:42:21;;;;;;;14.40;10.07;;;;;;;;;;4984482;28;20496;-92
2021/01/12 14:44:47;;;;;;;11.68;8.68;;;;;;;;;;5000105;28;20221;-93
2021/01/12 14:47:14;;;;;;;13.60;11.05;;;;;;;;;;4992984;28;20210;-92
2021/01/12 14:49:40;;;;;;;15.43;10.43;;;;;;;;;;4996955;28;20202;-92
2021/01/12 14:52:06;;;;;;;17.23;11.33;;;;;;;;;;5003880;28;20505;-92
2021/01/12 14:54:32;;;;;;;16.63;12.70;;;;;;;;;;4995649;28;20456;-93
2021/01/12 14:56:58;;;;;;;16.63;12.87;;;;;;;;;;4993199;28;20468;-91
2021/01/12 14:59:25;;;;;;;16.33;12.20;;;;;;;;;;5001153;28;20445;-92
2021/01/12 15:01:51;;;;;;;13.90;11.07;;;;;;;;;;5004815;28;20213;-91
2021/01/12 15:04:17;;;;;;;13.00;10.23;;;;;;;;;;4997641;28;20213;-93
2021/01/12 15:06:43;;;;;;;14.25;10.23;;;;;;;;;;4994366;28;20470;-92
2021/01/12 15:09:10;;;;;;;14.00;10.40;;;;;;;;;;4990568;28;20277;-92
2021/01/12 15:11:37;;;;;;;17.23;12.00;;;;;;;;;;4995877;28;20235;-92
2021/01/12 15:14:03;;;;;;;16.05;11.43;;;;;;;;;;4999230;28;20246;-92
2021/01/12 15:16:30;;;;;;;15.70;11.60;;;;;;;;;;5003080;28;20202;-91
2021/01/12 15:18:56;;;;;;;14.75;12.00;;;;;;;;;;4995183;28;20217;-92
2021/01/12 15:21:22;;;;;;;18.80;13.23;;;;;;;;;;5000945;28;20241;-92
2021/01/12 15:23:48;;;;;;;18.80;13.60;;;;;;;;;;4992832;28;20211;-91
2021/01/12 15:26:15;;;;;;;16.80;12.73;;;;;;;;;;4997762;28;20951;-91
2021/01/12 15:28:41;;;;;;;15.45;12.45;;;;;;;;;;4993647;28;20213;-91
2021/01/12 15:31:07;;;;;;;22.92;15.75;;;;;;;;;;4996892;28;20225;-92
2021/01/12 15:33:34;;;;;;;20.95;16.25;;;;;;;;;;4987037;28;20232;-93
2021/01/12 15:36:00;;;;;;;24.83;15.82;;;;;;;;;;5006610;28;20207;-91
2021/01/12 15:38:26;;;;;;;19.80;16.00;;;;;;;;;;5007131;28;20190;-90
2021/01/12 15:40:53;;;;;;;21.47;15.37;;;;;;;;;;5003538;28;20204;-90
2021/01/12 15:43:19;;;;;;;23.52;16.88;;;;;;;;;;5000524;28;20463;-91